sensor_id;sensor_type;location;lat;lon;timestamp;P1;durP1;ratioP1;P2;durP2;ratioP2
26686;SDS011;14298;50.900;4.648;2022-08-01T00:00:04;1.57;;;1.27;;
26686;SDS011;14298;50.900;4.648;2022-08-01T00:02:35;3.77;;;1.60;;
26686;SDS011;14298;50.900;4.648;2022-08-01T00:05:07;2.90;;;1.40;;
26686;SDS011;14298;50.900;4.648;2022-08-01T00:07:37;5.47;;;1.80;;
26686;SDS011;14298;50.900;4.648;2022-08-01T00:10:07;3.90;;;1.53;;
26686;SDS011;14298;50.900;4.648;2022-08-01T00:12:37;3.80;;;1.70;;
26686;SDS011;14298;50.900;4.648;2022-08-01T00:15:07;2.63;;;1.60;;
26686;SDS011;14298;50.900;4.648;2022-08-01T00:17:37;3.87;;;2.20;;
26686;SDS011;14298;50.900;4.648;2022-08-01T00:20:07;3.37;;;1.80;;
26686;SDS011;14298;50.900;4.648;2022-08-01T00:22:37;2.97;;;2.13;;
26686;SDS011;14298;50.900;4.648;2022-08-01T00:25:06;3.73;;;2.27;;
26686;SDS011;14298;50.900;4.648;2022-08-01T00:27:35;4.80;;;2.40;;
26686;SDS011;14298;50.900;4.648;2022-08-01T00:30:04;6.13;;;2.67;;
26686;SDS011;14298;50.900;4.648;2022-08-01T00:32:33;5.17;;;3.17;;
26686;SDS011;14298;50.900;4.648;2022-08-01T00:35:01;6.93;;;3.57;;
26686;SDS011;14298;50.900;4.648;2022-08-01T00:37:30;5.07;;;3.07;;
26686;SDS011;14298;50.900;4.648;2022-08-01T00:39:58;4.43;;;3.00;;
26686;SDS011;14298;50.900;4.648;2022-08-01T00:42:27;5.63;;;3.07;;
26686;SDS011;14298;50.900;4.648;2022-08-01T00:44:55;3.63;;;2.60;;
26686;SDS011;14298;50.900;4.648;2022-08-01T00:47:23;4.47;;;3.10;;
26686;SDS011;14298;50.900;4.648;2022-08-01T00:49:51;5.40;;;3.07;;
26686;SDS011;14298;50.900;4.648;2022-08-01T00:52:20;4.77;;;3.23;;
26686;SDS011;14298;50.900;4.648;2022-08-01T00:54:48;6.47;;;3.23;;
26686;SDS011;14298;50.900;4.648;2022-08-01T00:57:17;6.70;;;3.87;;
26686;SDS011;14298;50.900;4.648;2022-08-01T00:59:45;7.00;;;4.07;;
26686;SDS011;14298;50.900;4.648;2022-08-01T01:02:14;8.40;;;3.90;;
26686;SDS011;14298;50.900;4.648;2022-08-01T01:04:44;6.13;;;4.03;;
26686;SDS011;14298;50.900;4.648;2022-08-01T01:07:38;5.27;;;4.00;;
26686;SDS011;14298;50.900;4.648;2022-08-01T01:09:50;7.07;;;4.37;;
26686;SDS011;14298;50.900;4.648;2022-08-01T01:12:44;7.83;;;4.37;;
26686;SDS011;14298;50.900;4.648;2022-08-01T01:15:21;5.97;;;4.37;;
26686;SDS011;14298;50.900;4.648;2022-08-01T01:23:50;6.77;;;4.20;;
26686;SDS011;14298;50.900;4.648;2022-08-01T01:26:31;6.47;;;4.07;;
26686;SDS011;14298;50.900;4.648;2022-08-01T01:29:02;7.97;;;4.13;;
26686;SDS011;14298;50.900;4.648;2022-08-01T01:34:23;8.87;;;4.67;;
26686;SDS011;14298;50.900;4.648;2022-08-01T01:36:53;7.73;;;4.50;;
26686;SDS011;14298;50.900;4.648;2022-08-01T01:39:24;6.93;;;4.43;;
26686;SDS011;14298;50.900;4.648;2022-08-01T01:41:55;6.90;;;4.37;;
26686;SDS011;14298;50.900;4.648;2022-08-01T01:44:26;8.50;;;4.10;;
26686;SDS011;14298;50.900;4.648;2022-08-01T01:46:55;6.13;;;4.13;;
26686;SDS011;14298;50.900;4.648;2022-08-01T01:49:27;6.10;;;4.33;;
26686;SDS011;14298;50.900;4.648;2022-08-01T01:51:56;7.73;;;4.27;;
26686;SDS011;14298;50.900;4.648;2022-08-01T01:54:38;4.40;;;3.87;;
26686;SDS011;14298;50.900;4.648;2022-08-01T01:57:06;5.40;;;3.70;;
26686;SDS011;14298;50.900;4.648;2022-08-01T01:59:37;6.33;;;4.07;;
26686;SDS011;14298;50.900;4.648;2022-08-01T02:02:07;8.83;;;4.27;;
26686;SDS011;14298;50.900;4.648;2022-08-01T02:04:37;7.80;;;4.43;;
26686;SDS011;14298;50.900;4.648;2022-08-01T02:07:12;6.87;;;4.10;;
26686;SDS011;14298;50.900;4.648;2022-08-01T02:09:43;6.93;;;3.97;;
26686;SDS011;14298;50.900;4.648;2022-08-01T02:12:13;5.90;;;4.13;;
26686;SDS011;14298;50.900;4.648;2022-08-01T02:14:44;7.27;;;4.67;;
26686;SDS011;14298;50.900;4.648;2022-08-01T02:17:15;7.90;;;5.30;;
26686;SDS011;14298;50.900;4.648;2022-08-01T02:19:44;10.27;;;6.93;;
26686;SDS011;14298;50.900;4.648;2022-08-01T02:22:18;9.53;;;6.83;;
26686;SDS011;14298;50.900;4.648;2022-08-01T02:24:54;10.77;;;7.10;;
26686;SDS011;14298;50.900;4.648;2022-08-01T02:30:20;9.23;;;7.50;;
26686;SDS011;14298;50.900;4.648;2022-08-01T02:32:53;13.07;;;8.40;;
26686;SDS011;14298;50.900;4.648;2022-08-01T02:35:32;11.80;;;7.80;;
26686;SDS011;14298;50.900;4.648;2022-08-01T02:37:57;10.70;;;8.70;;
26686;SDS011;14298;50.900;4.648;2022-08-01T02:40:29;11.10;;;8.30;;
26686;SDS011;14298;50.900;4.648;2022-08-01T02:43:00;12.70;;;8.37;;
26686;SDS011;14298;50.900;4.648;2022-08-01T02:45:30;12.60;;;8.50;;
26686;SDS011;14298;50.900;4.648;2022-08-01T02:48:02;11.33;;;8.30;;
26686;SDS011;14298;50.900;4.648;2022-08-01T02:50:32;11.47;;;8.47;;
26686;SDS011;14298;50.900;4.648;2022-08-01T02:53:03;12.90;;;8.23;;
26686;SDS011;14298;50.900;4.648;2022-08-01T02:55:36;12.73;;;9.27;;
26686;SDS011;14298;50.900;4.648;2022-08-01T02:58:07;13.23;;;9.17;;
26686;SDS011;14298;50.900;4.648;2022-08-01T03:00:38;12.47;;;8.63;;
26686;SDS011;14298;50.900;4.648;2022-08-01T03:03:08;13.17;;;8.47;;
26686;SDS011;14298;50.900;4.648;2022-08-01T03:05:38;14.00;;;8.80;;
26686;SDS011;14298;50.900;4.648;2022-08-01T03:08:09;9.90;;;8.10;;
26686;SDS011;14298;50.900;4.648;2022-08-01T03:10:38;12.33;;;8.67;;
26686;SDS011;14298;50.900;4.648;2022-08-01T03:13:09;15.47;;;9.27;;
26686;SDS011;14298;50.900;4.648;2022-08-01T03:15:41;15.57;;;10.30;;
26686;SDS011;14298;50.900;4.648;2022-08-01T03:18:11;13.87;;;9.63;;
26686;SDS011;14298;50.900;4.648;2022-08-01T03:20:41;15.37;;;11.00;;
26686;SDS011;14298;50.900;4.648;2022-08-01T03:23:13;18.67;;;11.80;;
26686;SDS011;14298;50.900;4.648;2022-08-01T03:25:43;20.73;;;12.93;;
26686;SDS011;14298;50.900;4.648;2022-08-01T03:28:13;21.27;;;13.63;;
26686;SDS011;14298;50.900;4.648;2022-08-01T03:30:43;29.13;;;14.53;;
26686;SDS011;14298;50.900;4.648;2022-08-01T03:33:12;22.83;;;12.37;;
26686;SDS011;14298;50.900;4.648;2022-08-01T03:35:43;19.40;;;12.13;;
26686;SDS011;14298;50.900;4.648;2022-08-01T03:38:12;18.97;;;12.73;;
26686;SDS011;14298;50.900;4.648;2022-08-01T03:40:53;29.67;;;14.40;;
26686;SDS011;14298;50.900;4.648;2022-08-01T03:43:29;28.87;;;16.13;;
26686;SDS011;14298;50.900;4.648;2022-08-01T03:45:59;29.70;;;17.87;;
26686;SDS011;14298;50.900;4.648;2022-08-01T03:48:31;28.47;;;16.33;;
26686;SDS011;14298;50.900;4.648;2022-08-01T03:51:03;29.03;;;17.20;;
26686;SDS011;14298;50.900;4.648;2022-08-01T03:53:33;30.43;;;16.53;;
26686;SDS011;14298;50.900;4.648;2022-08-01T03:56:04;33.53;;;17.70;;
26686;SDS011;14298;50.900;4.648;2022-08-01T03:58:36;38.03;;;19.23;;
26686;SDS011;14298;50.900;4.648;2022-08-01T04:01:06;35.47;;;19.00;;
26686;SDS011;14298;50.900;4.648;2022-08-01T04:03:38;44.90;;;21.17;;
26686;SDS011;14298;50.900;4.648;2022-08-01T04:06:07;44.57;;;20.80;;
26686;SDS011;14298;50.900;4.648;2022-08-01T04:08:37;42.47;;;19.70;;
26686;SDS011;14298;50.900;4.648;2022-08-01T04:11:07;43.23;;;21.57;;
26686;SDS011;14298;50.900;4.648;2022-08-01T04:13:37;43.43;;;21.87;;
26686;SDS011;14298;50.900;4.648;2022-08-01T04:16:05;38.07;;;21.50;;
26686;SDS011;14298;50.900;4.648;2022-08-01T04:18:34;41.23;;;22.67;;
26686;SDS011;14298;50.900;4.648;2022-08-01T04:21:03;45.43;;;22.73;;
26686;SDS011;14298;50.900;4.648;2022-08-01T04:23:31;44.80;;;21.53;;
26686;SDS011;14298;50.900;4.648;2022-08-01T04:26:02;37.13;;;19.30;;
26686;SDS011;14298;50.900;4.648;2022-08-01T04:28:33;42.27;;;20.63;;
26686;SDS011;14298;50.900;4.648;2022-08-01T04:31:05;39.83;;;20.90;;
26686;SDS011;14298;50.900;4.648;2022-08-01T04:33:38;51.27;;;23.47;;
26686;SDS011;14298;50.900;4.648;2022-08-01T04:36:12;56.63;;;25.73;;
26686;SDS011;14298;50.900;4.648;2022-08-01T04:38:44;44.03;;;23.23;;
26686;SDS011;14298;50.900;4.648;2022-08-01T04:41:14;53.43;;;23.37;;
26686;SDS011;14298;50.900;4.648;2022-08-01T04:44:04;43.50;;;21.90;;
26686;SDS011;14298;50.900;4.648;2022-08-01T04:46:33;45.33;;;23.47;;
26686;SDS011;14298;50.900;4.648;2022-08-01T04:49:04;44.13;;;22.83;;
26686;SDS011;14298;50.900;4.648;2022-08-01T04:51:48;41.47;;;21.70;;
26686;SDS011;14298;50.900;4.648;2022-08-01T04:54:27;37.80;;;21.70;;
26686;SDS011;14298;50.900;4.648;2022-08-01T04:56:59;45.43;;;22.10;;
26686;SDS011;14298;50.900;4.648;2022-08-01T04:59:33;41.37;;;22.63;;
26686;SDS011;14298;50.900;4.648;2022-08-01T05:02:08;42.73;;;21.17;;
26686;SDS011;14298;50.900;4.648;2022-08-01T05:04:42;33.37;;;20.00;;
26686;SDS011;14298;50.900;4.648;2022-08-01T05:07:11;36.67;;;19.90;;
26686;SDS011;14298;50.900;4.648;2022-08-01T05:09:40;37.10;;;20.40;;
26686;SDS011;14298;50.900;4.648;2022-08-01T05:12:09;33.87;;;20.97;;
26686;SDS011;14298;50.900;4.648;2022-08-01T05:14:37;25.17;;;17.00;;
26686;SDS011;14298;50.900;4.648;2022-08-01T05:17:07;28.83;;;18.87;;
26686;SDS011;14298;50.900;4.648;2022-08-01T05:19:36;30.07;;;17.13;;
26686;SDS011;14298;50.900;4.648;2022-08-01T05:22:06;24.63;;;16.30;;
26686;SDS011;14298;50.900;4.648;2022-08-01T05:24:35;29.77;;;18.13;;
26686;SDS011;14298;50.900;4.648;2022-08-01T05:29:44;25.90;;;16.73;;
26686;SDS011;14298;50.900;4.648;2022-08-01T05:32:13;27.70;;;17.50;;
26686;SDS011;14298;50.900;4.648;2022-08-01T05:34:41;25.57;;;15.50;;
26686;SDS011;14298;50.900;4.648;2022-08-01T05:37:10;23.43;;;15.10;;
26686;SDS011;14298;50.900;4.648;2022-08-01T05:39:38;23.53;;;15.03;;
26686;SDS011;14298;50.900;4.648;2022-08-01T05:42:07;22.07;;;14.23;;
26686;SDS011;14298;50.900;4.648;2022-08-01T05:44:35;25.83;;;14.40;;
26686;SDS011;14298;50.900;4.648;2022-08-01T05:47:03;20.20;;;13.20;;
26686;SDS011;14298;50.900;4.648;2022-08-01T05:49:32;25.83;;;14.33;;
26686;SDS011;14298;50.900;4.648;2022-08-01T05:52:00;21.17;;;14.13;;
26686;SDS011;14298;50.900;4.648;2022-08-01T05:54:28;23.87;;;13.40;;
26686;SDS011;14298;50.900;4.648;2022-08-01T05:56:57;19.70;;;12.73;;
26686;SDS011;14298;50.900;4.648;2022-08-01T05:59:27;15.23;;;11.40;;
26686;SDS011;14298;50.900;4.648;2022-08-01T06:01:56;15.43;;;10.97;;
26686;SDS011;14298;50.900;4.648;2022-08-01T06:04:24;17.63;;;11.30;;
26686;SDS011;14298;50.900;4.648;2022-08-01T06:06:53;17.23;;;11.80;;
26686;SDS011;14298;50.900;4.648;2022-08-01T06:09:21;17.53;;;12.23;;
26686;SDS011;14298;50.900;4.648;2022-08-01T06:11:49;16.60;;;11.10;;
26686;SDS011;14298;50.900;4.648;2022-08-01T06:14:18;12.30;;;9.50;;
26686;SDS011;14298;50.900;4.648;2022-08-01T06:16:46;11.90;;;9.97;;
26686;SDS011;14298;50.900;4.648;2022-08-01T06:19:14;11.03;;;9.23;;
26686;SDS011;14298;50.900;4.648;2022-08-01T06:21:43;12.43;;;9.00;;
26686;SDS011;14298;50.900;4.648;2022-08-01T06:24:11;12.60;;;7.87;;
26686;SDS011;14298;50.900;4.648;2022-08-01T06:26:40;10.50;;;7.87;;
26686;SDS011;14298;50.900;4.648;2022-08-01T06:29:08;11.10;;;6.83;;
26686;SDS011;14298;50.900;4.648;2022-08-01T06:31:37;13.57;;;7.87;;
26686;SDS011;14298;50.900;4.648;2022-08-01T06:34:05;13.20;;;7.40;;
26686;SDS011;14298;50.900;4.648;2022-08-01T06:36:33;12.10;;;7.87;;
26686;SDS011;14298;50.900;4.648;2022-08-01T06:39:02;10.57;;;6.97;;
26686;SDS011;14298;50.900;4.648;2022-08-01T06:41:30;10.57;;;6.80;;
26686;SDS011;14298;50.900;4.648;2022-08-01T06:43:59;10.07;;;6.20;;
26686;SDS011;14298;50.900;4.648;2022-08-01T06:46:29;11.60;;;6.10;;
26686;SDS011;14298;50.900;4.648;2022-08-01T06:48:57;9.43;;;6.70;;
26686;SDS011;14298;50.900;4.648;2022-08-01T06:51:25;9.57;;;6.57;;
26686;SDS011;14298;50.900;4.648;2022-08-01T06:53:54;9.07;;;6.23;;
26686;SDS011;14298;50.900;4.648;2022-08-01T06:56:22;9.83;;;6.27;;
26686;SDS011;14298;50.900;4.648;2022-08-01T06:58:50;8.77;;;5.33;;
26686;SDS011;14298;50.900;4.648;2022-08-01T07:01:19;9.33;;;5.90;;
26686;SDS011;14298;50.900;4.648;2022-08-01T07:03:47;9.53;;;5.87;;
26686;SDS011;14298;50.900;4.648;2022-08-01T07:06:16;9.33;;;7.47;;
26686;SDS011;14298;50.900;4.648;2022-08-01T07:08:44;14.60;;;6.47;;
26686;SDS011;14298;50.900;4.648;2022-08-01T07:11:12;10.00;;;6.70;;
26686;SDS011;14298;50.900;4.648;2022-08-01T07:13:41;8.73;;;6.90;;
26686;SDS011;14298;50.900;4.648;2022-08-01T07:16:09;7.27;;;6.57;;
26686;SDS011;14298;50.900;4.648;2022-08-01T07:18:37;7.23;;;5.80;;
26686;SDS011;14298;50.900;4.648;2022-08-01T07:21:06;8.70;;;6.30;;
26686;SDS011;14298;50.900;4.648;2022-08-01T07:23:34;10.87;;;6.60;;
26686;SDS011;14298;50.900;4.648;2022-08-01T07:26:03;8.37;;;6.17;;
26686;SDS011;14298;50.900;4.648;2022-08-01T07:28:33;6.73;;;5.50;;
26686;SDS011;14298;50.900;4.648;2022-08-01T07:31:01;8.60;;;6.13;;
26686;SDS011;14298;50.900;4.648;2022-08-01T07:33:29;6.70;;;6.00;;
26686;SDS011;14298;50.900;4.648;2022-08-01T07:35:58;6.70;;;5.57;;
26686;SDS011;14298;50.900;4.648;2022-08-01T07:38:26;5.87;;;5.33;;
26686;SDS011;14298;50.900;4.648;2022-08-01T07:40:55;6.67;;;5.87;;
26686;SDS011;14298;50.900;4.648;2022-08-01T07:43:23;6.37;;;5.77;;
26686;SDS011;14298;50.900;4.648;2022-08-01T07:45:52;9.37;;;6.50;;
26686;SDS011;14298;50.900;4.648;2022-08-01T07:48:20;7.73;;;6.40;;
26686;SDS011;14298;50.900;4.648;2022-08-01T07:50:50;9.80;;;6.47;;
26686;SDS011;14298;50.900;4.648;2022-08-01T07:53:19;6.57;;;6.00;;
26686;SDS011;14298;50.900;4.648;2022-08-01T07:55:47;6.83;;;6.13;;
26686;SDS011;14298;50.900;4.648;2022-08-01T07:58:16;6.90;;;5.90;;
26686;SDS011;14298;50.900;4.648;2022-08-01T08:00:44;5.87;;;5.27;;
26686;SDS011;14298;50.900;4.648;2022-08-01T08:03:13;4.33;;;3.90;;
26686;SDS011;14298;50.900;4.648;2022-08-01T08:05:41;4.77;;;3.63;;
26686;SDS011;14298;50.900;4.648;2022-08-01T08:08:09;3.73;;;2.83;;
26686;SDS011;14298;50.900;4.648;2022-08-01T08:10:39;3.97;;;3.57;;
26686;SDS011;14298;50.900;4.648;2022-08-01T08:13:08;4.43;;;3.80;;
26686;SDS011;14298;50.900;4.648;2022-08-01T08:15:36;4.17;;;3.20;;
26686;SDS011;14298;50.900;4.648;2022-08-01T08:18:05;4.10;;;3.70;;
26686;SDS011;14298;50.900;4.648;2022-08-01T08:20:33;4.90;;;3.20;;
26686;SDS011;14298;50.900;4.648;2022-08-01T08:23:02;4.60;;;3.03;;
26686;SDS011;14298;50.900;4.648;2022-08-01T08:25:32;5.13;;;3.10;;
26686;SDS011;14298;50.900;4.648;2022-08-01T08:28:02;5.83;;;3.43;;
26686;SDS011;14298;50.900;4.648;2022-08-01T08:30:31;3.60;;;3.27;;
26686;SDS011;14298;50.900;4.648;2022-08-01T08:32:59;4.30;;;3.40;;
26686;SDS011;14298;50.900;4.648;2022-08-01T08:35:27;4.23;;;3.30;;
26686;SDS011;14298;50.900;4.648;2022-08-01T08:37:56;4.17;;;3.00;;
26686;SDS011;14298;50.900;4.648;2022-08-01T08:40:24;4.83;;;3.00;;
26686;SDS011;14298;50.900;4.648;2022-08-01T08:42:56;4.13;;;3.00;;
26686;SDS011;14298;50.900;4.648;2022-08-01T08:45:26;3.30;;;3.00;;
26686;SDS011;14298;50.900;4.648;2022-08-01T08:47:55;3.17;;;2.90;;
26686;SDS011;14298;50.900;4.648;2022-08-01T08:50:28;2.80;;;2.60;;
26686;SDS011;14298;50.900;4.648;2022-08-01T08:52:56;3.03;;;2.73;;
26686;SDS011;14298;50.900;4.648;2022-08-01T08:55:27;3.40;;;2.93;;
26686;SDS011;14298;50.900;4.648;2022-08-01T08:57:56;3.17;;;2.87;;
26686;SDS011;14298;50.900;4.648;2022-08-01T09:00:27;7.03;;;3.57;;
26686;SDS011;14298;50.900;4.648;2022-08-01T09:02:55;4.83;;;4.37;;
26686;SDS011;14298;50.900;4.648;2022-08-01T09:05:23;6.17;;;5.63;;
26686;SDS011;14298;50.900;4.648;2022-08-01T09:07:55;5.93;;;5.43;;
26686;SDS011;14298;50.900;4.648;2022-08-01T09:10:23;6.20;;;5.80;;
26686;SDS011;14298;50.900;4.648;2022-08-01T09:13:08;6.83;;;6.23;;
26686;SDS011;14298;50.900;4.648;2022-08-01T09:15:39;7.30;;;6.57;;
26686;SDS011;14298;50.900;4.648;2022-08-01T09:21:15;10.10;;;6.70;;
26686;SDS011;14298;50.900;4.648;2022-08-01T09:23:46;7.20;;;5.40;;
26686;SDS011;14298;50.900;4.648;2022-08-01T09:26:28;6.60;;;5.20;;
26686;SDS011;14298;50.900;4.648;2022-08-01T09:28:51;6.70;;;5.10;;
26686;SDS011;14298;50.900;4.648;2022-08-01T09:31:19;5.70;;;5.20;;
26686;SDS011;14298;50.900;4.648;2022-08-01T09:33:58;5.60;;;4.10;;
26686;SDS011;14298;50.900;4.648;2022-08-01T09:39:19;4.53;;;4.13;;
26686;SDS011;14298;50.900;4.648;2022-08-01T09:41:48;4.27;;;3.87;;
26686;SDS011;14298;50.900;4.648;2022-08-01T09:44:17;14.30;;;3.67;;
26686;SDS011;14298;50.900;4.648;2022-08-01T09:46:50;5.53;;;3.07;;
26686;SDS011;14298;50.900;4.648;2022-08-01T09:49:33;2.60;;;2.40;;
26686;SDS011;14298;50.900;4.648;2022-08-01T09:54:42;3.33;;;3.02;;
26686;SDS011;14298;50.900;4.648;2022-08-01T09:57:16;3.72;;;2.37;;
26686;SDS011;14298;50.900;4.648;2022-08-01T09:59:49;6.95;;;2.60;;
26686;SDS011;14298;50.900;4.648;2022-08-01T10:02:32;2.40;;;2.20;;
26686;SDS011;14298;50.900;4.648;2022-08-01T10:04:56;2.60;;;2.40;;
26686;SDS011;14298;50.900;4.648;2022-08-01T10:07:26;3.85;;;2.37;;
26686;SDS011;14298;50.900;4.648;2022-08-01T10:09:55;3.02;;;2.75;;
26686;SDS011;14298;50.900;4.648;2022-08-01T10:12:23;2.95;;;2.52;;
26686;SDS011;14298;50.900;4.648;2022-08-01T10:14:51;2.70;;;2.50;;
26686;SDS011;14298;50.900;4.648;2022-08-01T10:17:24;2.27;;;2.08;;
26686;SDS011;14298;50.900;4.648;2022-08-01T10:19:52;2.70;;;2.45;;
26686;SDS011;14298;50.900;4.648;2022-08-01T10:22:22;4.50;;;2.30;;
26686;SDS011;14298;50.900;4.648;2022-08-01T10:24:54;2.45;;;2.20;;
26686;SDS011;14298;50.900;4.648;2022-08-01T10:27:25;3.40;;;2.62;;
26686;SDS011;14298;50.900;4.648;2022-08-01T10:29:57;2.15;;;1.92;;
26686;SDS011;14298;50.900;4.648;2022-08-01T10:32:34;4.35;;;2.22;;
26686;SDS011;14298;50.900;4.648;2022-08-01T10:35:04;2.30;;;2.17;;
26686;SDS011;14298;50.900;4.648;2022-08-01T10:37:33;2.62;;;2.42;;
26686;SDS011;14298;50.900;4.648;2022-08-01T10:40:03;2.90;;;2.40;;
26686;SDS011;14298;50.900;4.648;2022-08-01T10:42:33;2.60;;;2.40;;
26686;SDS011;14298;50.900;4.648;2022-08-01T10:45:02;2.90;;;2.40;;
26686;SDS011;14298;50.900;4.648;2022-08-01T10:47:40;2.70;;;2.50;;
26686;SDS011;14298;50.900;4.648;2022-08-01T10:50:17;2.62;;;2.40;;
26686;SDS011;14298;50.900;4.648;2022-08-01T10:55:52;3.08;;;2.33;;
26686;SDS011;14298;50.900;4.648;2022-08-01T10:58:28;2.30;;;2.10;;
26686;SDS011;14298;50.900;4.648;2022-08-01T11:04:07;2.77;;;2.50;;
26686;SDS011;14298;50.900;4.648;2022-08-01T11:06:43;3.60;;;2.80;;
26686;SDS011;14298;50.900;4.648;2022-08-01T11:09:23;5.58;;;2.40;;
26686;SDS011;14298;50.900;4.648;2022-08-01T11:11:57;2.65;;;2.37;;
26686;SDS011;14298;50.900;4.648;2022-08-01T11:14:33;2.55;;;2.35;;
26686;SDS011;14298;50.900;4.648;2022-08-01T11:30:53;2.40;;;2.20;;
26686;SDS011;14298;50.900;4.648;2022-08-01T11:33:47;4.50;;;2.40;;
26686;SDS011;14298;50.900;4.648;2022-08-01T11:38:43;1.62;;;1.50;;
26686;SDS011;14298;50.900;4.648;2022-08-01T11:41:14;3.27;;;1.55;;
26686;SDS011;14298;50.900;4.648;2022-08-01T11:46:56;1.50;;;1.27;;
26686;SDS011;14298;50.900;4.648;2022-08-01T11:49:22;8.25;;;1.30;;
26686;SDS011;14298;50.900;4.648;2022-08-01T11:51:59;3.83;;;1.55;;
26686;SDS011;14298;50.900;4.648;2022-08-01T11:54:31;1.20;;;1.10;;
26686;SDS011;14298;50.900;4.648;2022-08-01T11:57:12;4.00;;;1.35;;
26686;SDS011;14298;50.900;4.648;2022-08-01T11:59:46;2.20;;;1.00;;
26686;SDS011;14298;50.900;4.648;2022-08-01T12:02:19;1.90;;;1.00;;
26686;SDS011;14298;50.900;4.648;2022-08-01T12:04:59;2.85;;;0.80;;
26686;SDS011;14298;50.900;4.648;2022-08-01T12:07:29;1.97;;;0.80;;
26686;SDS011;14298;50.900;4.648;2022-08-01T12:12:34;1.62;;;0.90;;
26686;SDS011;14298;50.900;4.648;2022-08-01T12:15:08;3.83;;;1.10;;
26686;SDS011;14298;50.900;4.648;2022-08-01T12:17:38;1.90;;;0.72;;
26686;SDS011;14298;50.900;4.648;2022-08-01T12:20:09;2.12;;;0.85;;
26686;SDS011;14298;50.900;4.648;2022-08-01T12:22:42;1.57;;;0.90;;
26686;SDS011;14298;50.900;4.648;2022-08-01T12:25:14;1.67;;;0.57;;
26686;SDS011;14298;50.900;4.648;2022-08-01T12:27:45;1.95;;;1.05;;
26686;SDS011;14298;50.900;4.648;2022-08-01T12:30:21;4.22;;;1.00;;
26686;SDS011;14298;50.900;4.648;2022-08-01T12:32:46;1.90;;;1.10;;
26686;SDS011;14298;50.900;4.648;2022-08-01T12:35:15;1.70;;;0.90;;
26686;SDS011;14298;50.900;4.648;2022-08-01T12:37:48;1.22;;;0.70;;
26686;SDS011;14298;50.900;4.648;2022-08-01T12:40:25;3.05;;;1.02;;
26686;SDS011;14298;50.900;4.648;2022-08-01T12:42:56;1.07;;;0.75;;
26686;SDS011;14298;50.900;4.648;2022-08-01T12:45:39;0.90;;;0.68;;
26686;SDS011;14298;50.900;4.648;2022-08-01T12:48:10;2.85;;;0.90;;
26686;SDS011;14298;50.900;4.648;2022-08-01T12:50:41;2.80;;;0.90;;
26686;SDS011;14298;50.900;4.648;2022-08-01T12:53:12;1.95;;;0.90;;
26686;SDS011;14298;50.900;4.648;2022-08-01T12:55:45;2.67;;;1.12;;
26686;SDS011;14298;50.900;4.648;2022-08-01T12:58:17;2.83;;;0.80;;
26686;SDS011;14298;50.900;4.648;2022-08-01T13:00:47;2.98;;;0.95;;
26686;SDS011;14298;50.900;4.648;2022-08-01T13:03:18;0.93;;;0.80;;
26686;SDS011;14298;50.900;4.648;2022-08-01T13:05:54;2.20;;;0.90;;
26686;SDS011;14298;50.900;4.648;2022-08-01T13:08:26;2.85;;;1.20;;
26686;SDS011;14298;50.900;4.648;2022-08-01T13:11:05;2.42;;;0.90;;
26686;SDS011;14298;50.900;4.648;2022-08-01T13:13:42;0.90;;;0.80;;
26686;SDS011;14298;50.900;4.648;2022-08-01T13:16:20;2.50;;;0.80;;
26686;SDS011;14298;50.900;4.648;2022-08-01T13:18:53;0.63;;;0.57;;
26686;SDS011;14298;50.900;4.648;2022-08-01T13:21:30;0.80;;;0.68;;
26686;SDS011;14298;50.900;4.648;2022-08-01T13:26:46;2.50;;;0.70;;
26686;SDS011;14298;50.900;4.648;2022-08-01T13:29:16;2.60;;;0.90;;
26686;SDS011;14298;50.900;4.648;2022-08-01T13:31:47;0.70;;;0.70;;
26686;SDS011;14298;50.900;4.648;2022-08-01T13:34:16;2.57;;;0.73;;
26686;SDS011;14298;50.900;4.648;2022-08-01T13:36:44;2.27;;;0.75;;
26686;SDS011;14298;50.900;4.648;2022-08-01T13:39:12;1.27;;;0.80;;
26686;SDS011;14298;50.900;4.648;2022-08-01T13:41:59;1.42;;;0.80;;
26686;SDS011;14298;50.900;4.648;2022-08-01T13:44:28;2.47;;;0.60;;
26686;SDS011;14298;50.900;4.648;2022-08-01T13:46:56;2.33;;;0.90;;
26686;SDS011;14298;50.900;4.648;2022-08-01T13:49:25;2.77;;;0.57;;
26686;SDS011;14298;50.900;4.648;2022-08-01T13:51:53;1.65;;;0.70;;
26686;SDS011;14298;50.900;4.648;2022-08-01T13:54:21;2.80;;;0.88;;
26686;SDS011;14298;50.900;4.648;2022-08-01T13:56:51;2.27;;;1.00;;
26686;SDS011;14298;50.900;4.648;2022-08-01T13:59:20;1.30;;;1.00;;
26686;SDS011;14298;50.900;4.648;2022-08-01T14:01:48;1.93;;;0.90;;
26686;SDS011;14298;50.900;4.648;2022-08-01T14:04:17;2.40;;;0.93;;
26686;SDS011;14298;50.900;4.648;2022-08-01T14:06:47;4.00;;;0.90;;
26686;SDS011;14298;50.900;4.648;2022-08-01T14:09:15;6.30;;;0.80;;
26686;SDS011;14298;50.900;4.648;2022-08-01T14:11:45;2.72;;;0.80;;
26686;SDS011;14298;50.900;4.648;2022-08-01T14:14:14;2.10;;;0.62;;
26686;SDS011;14298;50.900;4.648;2022-08-01T14:16:42;1.62;;;0.72;;
26686;SDS011;14298;50.900;4.648;2022-08-01T14:19:12;2.83;;;0.70;;
26686;SDS011;14298;50.900;4.648;2022-08-01T14:21:42;2.93;;;0.90;;
26686;SDS011;14298;50.900;4.648;2022-08-01T14:24:11;3.93;;;0.87;;
26686;SDS011;14298;50.900;4.648;2022-08-01T14:26:39;2.07;;;1.00;;
26686;SDS011;14298;50.900;4.648;2022-08-01T14:29:08;1.40;;;0.73;;
26686;SDS011;14298;50.900;4.648;2022-08-01T14:31:36;5.65;;;1.05;;
26686;SDS011;14298;50.900;4.648;2022-08-01T14:34:04;2.40;;;0.70;;
26686;SDS011;14298;50.900;4.648;2022-08-01T14:36:33;1.82;;;0.80;;
26686;SDS011;14298;50.900;4.648;2022-08-01T14:39:01;1.00;;;0.80;;
26686;SDS011;14298;50.900;4.648;2022-08-01T14:41:30;3.15;;;0.80;;
26686;SDS011;14298;50.900;4.648;2022-08-01T14:43:58;0.70;;;0.70;;
26686;SDS011;14298;50.900;4.648;2022-08-01T14:46:27;5.77;;;1.00;;
26686;SDS011;14298;50.900;4.648;2022-08-01T14:48:55;1.52;;;0.90;;
26686;SDS011;14298;50.900;4.648;2022-08-01T14:51:24;1.83;;;1.00;;
26686;SDS011;14298;50.900;4.648;2022-08-01T14:53:52;5.90;;;0.85;;
26686;SDS011;14298;50.900;4.648;2022-08-01T14:56:20;1.62;;;0.90;;
26686;SDS011;14298;50.900;4.648;2022-08-01T14:58:49;2.20;;;0.80;;
26686;SDS011;14298;50.900;4.648;2022-08-01T15:01:17;0.85;;;0.53;;
26686;SDS011;14298;50.900;4.648;2022-08-01T15:03:46;2.67;;;1.20;;
26686;SDS011;14298;50.900;4.648;2022-08-01T15:06:16;1.85;;;0.78;;
26686;SDS011;14298;50.900;4.648;2022-08-01T15:08:45;6.83;;;1.10;;
26686;SDS011;14298;50.900;4.648;2022-08-01T15:11:13;5.83;;;0.80;;
26686;SDS011;14298;50.900;4.648;2022-08-01T15:13:41;1.60;;;0.90;;
26686;SDS011;14298;50.900;4.648;2022-08-01T15:16:10;0.72;;;0.60;;
26686;SDS011;14298;50.900;4.648;2022-08-01T15:18:38;0.78;;;0.60;;
26686;SDS011;14298;50.900;4.648;2022-08-01T15:21:08;1.98;;;0.70;;
26686;SDS011;14298;50.900;4.648;2022-08-01T15:23:36;3.90;;;0.85;;
26686;SDS011;14298;50.900;4.648;2022-08-01T15:26:05;2.65;;;0.80;;
26686;SDS011;14298;50.900;4.648;2022-08-01T15:28:35;0.93;;;0.73;;
26686;SDS011;14298;50.900;4.648;2022-08-01T15:31:03;1.13;;;0.80;;
26686;SDS011;14298;50.900;4.648;2022-08-01T15:33:31;1.30;;;0.75;;
26686;SDS011;14298;50.900;4.648;2022-08-01T15:36:00;1.98;;;0.55;;
26686;SDS011;14298;50.900;4.648;2022-08-01T15:38:28;4.45;;;0.90;;
26686;SDS011;14298;50.900;4.648;2022-08-01T15:40:56;1.27;;;1.17;;
26686;SDS011;14298;50.900;4.648;2022-08-01T15:43:25;1.27;;;0.72;;
26686;SDS011;14298;50.900;4.648;2022-08-01T15:45:53;1.22;;;0.78;;
26686;SDS011;14298;50.900;4.648;2022-08-01T15:48:21;1.30;;;0.70;;
26686;SDS011;14298;50.900;4.648;2022-08-01T15:50:50;1.85;;;0.90;;
26686;SDS011;14298;50.900;4.648;2022-08-01T15:53:18;1.32;;;0.70;;